sensor_id;sensor_type;location;lat;lon;timestamp;pressure;altitude;pressure_sealevel;temperature;humidity
43181;BME280;28798;54.950;26.362;2022-11-12T00:04:15;1002.4;;;9;100
43181;BME280;28798;54.950;26.362;2022-11-12T00:24:43;1002.4;;;9;100
43181;BME280;28798;54.950;26.362;2022-11-12T00:29:29;1002.6;;;9.1;100
43181;BME280;28798;54.950;26.362;2022-11-12T00:34:01;1002.6;;;9.1;100
43181;BME280;28798;54.950;26.362;2022-11-12T00:39:11;1002.6;;;9.1;100
43181;BME280;28798;54.950;26.362;2022-11-12T00:44:13;1002.6;;;9.1;100
43181;BME280;28798;54.950;26.362;2022-11-12T00:49:29;1002.6;;;9.1;100
43181;BME280;28798;54.950;26.362;2022-11-12T00:54:27;1002.7;;;9.1;100
43181;BME280;28798;54.950;26.362;2022-11-12T00:59:09;1002.7;;;9.1;100
43181;BME280;28798;54.950;26.362;2022-11-12T01:03:55;1002.7;;;9.1;100
43181;BME280;28798;54.950;26.362;2022-11-12T01:14:43;1002.7;;;9.1;100
43181;BME280;28798;54.950;26.362;2022-11-12T01:19:15;1002.5;;;9.1;100
43181;BME280;28798;54.950;26.362;2022-11-12T01:24:13;1002.4;;;9.1;100
43181;BME280;28798;54.950;26.362;2022-11-12T01:29:05;1002.4;;;9.1;100
43181;BME280;28798;54.950;26.362;2022-11-12T01:34:45;1002.4;;;9.1;100
43181;BME280;28798;54.950;26.362;2022-11-12T01:39:05;1002.4;;;9.1;100
43181;BME280;28798;54.950;26.362;2022-11-12T01:44:10;1002.4;;;9.2;100
43181;BME280;28798;54.950;26.362;2022-11-12T01:48:56;1002.4;;;9.2;100
43181;BME280;28798;54.950;26.362;2022-11-12T01:54:05;1002.4;;;9.2;100
43181;BME280;28798;54.950;26.362;2022-11-12T01:59:16;1002.4;;;9.2;100
43181;BME280;28798;54.950;26.362;2022-11-12T02:04:21;1002.4;;;9.2;100
43181;BME280;28798;54.950;26.362;2022-11-12T02:24:45;1002.3;;;9.2;100
43181;BME280;28798;54.950;26.362;2022-11-12T02:29:47;1002.3;;;9.2;100
43181;BME280;28798;54.950;26.362;2022-11-12T02:34:33;1002.3;;;9.2;100
43181;BME280;28798;54.950;26.362;2022-11-12T02:38:55;1002.3;;;9.2;100
43181;BME280;28798;54.950;26.362;2022-11-12T02:43:55;1002.1;;;9.3;100
43181;BME280;28798;54.950;26.362;2022-11-12T02:49:33;1002.2;;;9.3;100
43181;BME280;28798;54.950;26.362;2022-11-12T02:54:13;1002.2;;;9.3;100
43181;BME280;28798;54.950;26.362;2022-11-12T02:59:45;1002.2;;;9.3;100
43181;BME280;28798;54.950;26.362;2022-11-12T03:03:55;1002.2;;;9.3;100
43181;BME280;28798;54.950;26.362;2022-11-12T03:14:17;1002.4;;;9.4;100
43181;BME280;28798;54.950;26.362;2022-11-12T03:19:45;1002.4;;;9.4;100
43181;BME280;28798;54.950;26.362;2022-11-12T03:24:21;1002.5;;;9.4;100
43181;BME280;28798;54.950;26.362;2022-11-12T03:28:55;1002.5;;;9.4;100
43181;BME280;28798;54.950;26.362;2022-11-12T03:33:55;1002.4;;;9.4;100
43181;BME280;28798;54.950;26.362;2022-11-12T03:39:43;1002.4;;;9.4;100
43181;BME280;28798;54.950;26.362;2022-11-12T03:44:45;1002.3;;;9.4;100
43181;BME280;28798;54.950;26.362;2022-11-12T03:48:55;1002.3;;;9.5;100
43181;BME280;28798;54.950;26.362;2022-11-12T03:53:55;1002.3;;;9.5;100
43181;BME280;28798;54.950;26.362;2022-11-12T03:59:05;1002.1;;;9.5;100
43181;BME280;28798;54.950;26.362;2022-11-12T04:04:45;1002.1;;;9.5;100
43181;BME280;28798;54.950;26.362;2022-11-12T04:14:29;1002.1;;;9.6;100
43181;BME280;28798;54.950;26.362;2022-11-12T04:19:05;1002.1;;;9.6;100
43181;BME280;28798;54.950;26.362;2022-11-12T04:24:05;1002;;;9.6;100
43181;BME280;28798;54.950;26.362;2022-11-12T04:28:55;1002;;;9.6;100
43181;BME280;28798;54.950;26.362;2022-11-12T04:34:27;1002;;;9.6;100
43181;BME280;28798;54.950;26.362;2022-11-12T04:39:19;1002;;;9.6;100
43181;BME280;28798;54.950;26.362;2022-11-12T04:44:45;1002;;;9.6;100
43181;BME280;28798;54.950;26.362;2022-11-12T04:48:55;1002;;;9.6;100
43181;BME280;28798;54.950;26.362;2022-11-12T04:54:29;1002;;;9.6;100
43181;BME280;28798;54.950;26.362;2022-11-12T04:59:13;1002;;;9.7;100
43181;BME280;28798;54.950;26.362;2022-11-12T05:04:45;1002;;;9.7;100
43181;BME280;28798;54.950;26.362;2022-11-12T05:14:05;1002.1;;;9.7;100
43181;BME280;28798;54.950;26.362;2022-11-12T05:19:17;1002.1;;;9.7;100
43181;BME280;28798;54.950;26.362;2022-11-12T05:24:45;1002.2;;;9.7;100
43181;BME280;28798;54.950;26.362;2022-11-12T05:29:45;1002.2;;;9.7;100
43181;BME280;28798;54.950;26.362;2022-11-12T05:34:45;1002;;;9.7;100
43181;BME280;28798;54.950;26.362;2022-11-12T05:44:33;1002.3;;;9.7;100
43181;BME280;28798;54.950;26.362;2022-11-12T05:49:27;1002.2;;;9.7;100
43181;BME280;28798;54.950;26.362;2022-11-12T05:54:31;1002.2;;;9.7;100
43181;BME280;28798;54.950;26.362;2022-11-12T05:59:45;1002.3;;;9.7;100
43181;BME280;28798;54.950;26.362;2022-11-12T06:03:55;1002.3;;;9.7;100
43181;BME280;28798;54.950;26.362;2022-11-12T06:09:29;1002.4;;;9.6;100
43181;BME280;28798;54.950;26.362;2022-11-12T06:14:15;1002.4;;;9.7;100
43181;BME280;28798;54.950;26.362;2022-11-12T06:19:45;1002.4;;;9.7;100
43181;BME280;28798;54.950;26.362;2022-11-12T06:24:45;1002.5;;;9.6;100
43181;BME280;28798;54.950;26.362;2022-11-12T06:28:55;1002.5;;;9.6;100
43181;BME280;28798;54.950;26.362;2022-11-12T06:34:15;1002.5;;;9.6;100
43181;BME280;28798;54.950;26.362;2022-11-12T06:44:45;1002.4;;;9.6;100
43181;BME280;28798;54.950;26.362;2022-11-12T06:49:45;1002.5;;;9.6;100
43181;BME280;28798;54.950;26.362;2022-11-12T06:53:55;1002.5;;;9.6;100
43181;BME280;28798;54.950;26.362;2022-11-12T06:59:31;1002.5;;;9.7;100
43181;BME280;28798;54.950;26.362;2022-11-12T07:04:07;1002.6;;;9.7;100
43181;BME280;28798;54.950;26.362;2022-11-12T07:08:55;1002.6;;;9.7;100
43181;BME280;28798;54.950;26.362;2022-11-12T07:14:45;1002.6;;;9.7;100
43181;BME280;28798;54.950;26.362;2022-11-12T07:18:55;1002.6;;;9.7;100
43181;BME280;28798;54.950;26.362;2022-11-12T07:24:29;1002.6;;;9.7;100
43181;BME280;28798;54.950;26.362;2022-11-12T07:29:13;1002.6;;;9.7;100
43181;BME280;28798;54.950;26.362;2022-11-12T07:34:45;1002.8;;;9.8;100
43181;BME280;28798;54.950;26.362;2022-11-12T07:54:43;1002.8;;;9.7;100
43181;BME280;28798;54.950;26.362;2022-11-12T07:59:33;1002.8;;;9.8;100
43181;BME280;28798;54.950;26.362;2022-11-12T08:04:35;1002.8;;;9.8;100
43181;BME280;28798;54.950;26.362;2022-11-12T08:08:55;1002.8;;;9.8;100
43181;BME280;28798;54.950;26.362;2022-11-12T08:14:31;1002.8;;;9.8;100
43181;BME280;28798;54.950;26.362;2022-11-12T08:19:27;1002.8;;;9.8;100
43181;BME280;28798;54.950;26.362;2022-11-12T08:23:55;1002.8;;;9.8;100
43181;BME280;28798;54.950;26.362;2022-11-12T08:29:45;1002.9;;;9.9;100
43181;BME280;28798;54.950;26.362;2022-11-12T08:34:29;1002.9;;;9.9;100
43181;BME280;28798;54.950;26.362;2022-11-12T08:44:15;1002.8;;;9.9;100
43181;BME280;28798;54.950;26.362;2022-11-12T08:49:45;1002.8;;;9.9;100
43181;BME280;28798;54.950;26.362;2022-11-12T08:54:19;1002.8;;;9.9;100
43181;BME280;28798;54.950;26.362;2022-11-12T08:59:05;1002.8;;;9.9;100
43181;BME280;28798;54.950;26.362;2022-11-12T09:04:17;1002.8;;;9.9;100
43181;BME280;28798;54.950;26.362;2022-11-12T09:29:11;1002.7;;;10.1;100
43181;BME280;28798;54.950;26.362;2022-11-12T09:34:29;1002.7;;;10.1;100
43181;BME280;28798;54.950;26.362;2022-11-12T09:54:45;1002.6;;;10.1;100
43181;BME280;28798;54.950;26.362;2022-11-12T09:59:15;1002.6;;;10.1;100
43181;BME280;28798;54.950;26.362;2022-11-12T10:04:40;1002.9;;;10.1;100
43181;BME280;28798;54.950;26.362;2022-11-12T10:09:10;1002.9;;;10.1;100
43181;BME280;28798;54.950;26.362;2022-11-12T10:14:07;1002.9;;;10.1;100
43181;BME280;28798;54.950;26.362;2022-11-12T10:19:02;1002.9;;;10.1;100
43181;BME280;28798;54.950;26.362;2022-11-12T10:24:32;1002.8;;;10.1;100
43181;BME280;28798;54.950;26.362;2022-11-12T10:29:18;1002.7;;;10.1;100
43181;BME280;28798;54.950;26.362;2022-11-12T10:34:45;1002.7;;;10.1;100
43181;BME280;28798;54.950;26.362;2022-11-12T10:44:33;1002.9;;;10.1;100
43181;BME280;28798;54.950;26.362;2022-11-12T10:49:29;1003;;;10.1;100
43181;BME280;28798;54.950;26.362;2022-11-12T10:54:27;1003;;;10.1;100
43181;BME280;28798;54.950;26.362;2022-11-12T10:59:47;1003;;;10.1;100
43181;BME280;28798;54.950;26.362;2022-11-12T11:04:08;1003;;;10.1;100
43181;BME280;28798;54.950;26.362;2022-11-12T11:09:50;1003;;;10.1;100
43181;BME280;28798;54.950;26.362;2022-11-12T11:13:55;1003.1;;;10.1;100
43181;BME280;28798;54.950;26.362;2022-11-12T11:19:32;1003.1;;;10.1;100
43181;BME280;28798;54.950;26.362;2022-11-12T11:24:21;1003;;;10.1;100
43181;BME280;28798;54.950;26.362;2022-11-12T11:28:57;1003;;;10.1;100
43181;BME280;28798;54.950;26.362;2022-11-12T11:33:56;1003;;;10.1;100
43181;BME280;28798;54.950;26.362;2022-11-12T11:53:57;1003.1;;;10;100
43181;BME280;28798;54.950;26.362;2022-11-12T11:59:33;1003.1;;;10;100
43181;BME280;28798;54.950;26.362;2022-11-12T12:04:34;1003.1;;;10;100
43181;BME280;28798;54.950;26.362;2022-11-12T12:09:32;1003.1;;;10;100
43181;BME280;28798;54.950;26.362;2022-11-12T12:14:49;1003.1;;;10;100
43181;BME280;28798;54.950;26.362;2022-11-12T12:18:56;1003.1;;;10;100
43181;BME280;28798;54.950;26.362;2022-11-12T12:23:59;1003.2;;;10;100
43181;BME280;28798;54.950;26.362;2022-11-12T12:29:32;1003.3;;;9.9;100
43181;BME280;28798;54.950;26.362;2022-11-12T12:34:32;1003.3;;;9.9;100
43181;BME280;28798;54.950;26.362;2022-11-12T12:43:56;1003.3;;;10;100
43181;BME280;28798;54.950;26.362;2022-11-12T12:49:33;1003.4;;;10;100
43181;BME280;28798;54.950;26.362;2022-11-12T12:55:03;1003.4;;;10;100
43181;BME280;28798;54.950;26.362;2022-11-12T12:59:19;1003.4;;;10;100
43181;BME280;28798;54.950;26.362;2022-11-12T13:04:48;1003.5;;;10;100
43181;BME280;28798;54.950;26.362;2022-11-12T13:09:05;1003.5;;;10;100
43181;BME280;28798;54.950;26.362;2022-11-12T13:15:19;1003.5;;;10.1;100
43181;BME280;28798;54.950;26.362;2022-11-12T13:19:25;1003.5;;;10.1;100
43181;BME280;28798;54.950;26.362;2022-11-12T13:25:07;1003.6;;;10.1;100
43181;BME280;28798;54.950;26.362;2022-11-12T13:29:39;1003.6;;;10.1;100
43181;BME280;28798;54.950;26.362;2022-11-12T13:34:11;1003.6;;;10.1;100
43181;BME280;28798;54.950;26.362;2022-11-12T13:44:47;1003.8;;;10.1;100
43181;BME280;28798;54.950;26.362;2022-11-12T13:49:17;1003.9;;;10.1;100
43181;BME280;28798;54.950;26.362;2022-11-12T13:54:22;1003.9;;;10.1;100
43181;BME280;28798;54.950;26.362;2022-11-12T13:59:06;1003.9;;;10.1;100
43181;BME280;28798;54.950;26.362;2022-11-12T14:04:15;1004;;;10.1;100
43181;BME280;28798;54.950;26.362;2022-11-12T14:09:49;1004;;;10.1;100
43181;BME280;28798;54.950;26.362;2022-11-12T14:14:07;1004.1;;;10.2;100
43181;BME280;28798;54.950;26.362;2022-11-12T14:19:53;1004.1;;;10.2;100
43181;BME280;28798;54.950;26.362;2022-11-12T14:24:08;1004.1;;;10.2;100
43181;BME280;28798;54.950;26.362;2022-11-12T14:29:47;1004.1;;;10.2;100
43181;BME280;28798;54.950;26.362;2022-11-12T14:34:21;1004.1;;;10.2;100
43181;BME280;28798;54.950;26.362;2022-11-12T14:44:33;1004.3;;;10.2;100
43181;BME280;28798;54.950;26.362;2022-11-12T14:49:05;1004.4;;;10.2;100
43181;BME280;28798;54.950;26.362;2022-11-12T14:54:48;1004.4;;;10.2;100
43181;BME280;28798;54.950;26.362;2022-11-12T14:59:47;1004.4;;;10.2;100
43181;BME280;28798;54.950;26.362;2022-11-12T15:04:35;1004.4;;;10.2;100
43181;BME280;28798;54.950;26.362;2022-11-12T15:08:55;1004.4;;;10.2;100
43181;BME280;28798;54.950;26.362;2022-11-12T15:14:05;1004.5;;;10.3;100
43181;BME280;28798;54.950;26.362;2022-11-12T15:19:06;1004.6;;;10.3;100
43181;BME280;28798;54.950;26.362;2022-11-12T15:24:45;1004.6;;;10.3;100
43181;BME280;28798;54.950;26.362;2022-11-12T15:29:31;1004.7;;;10.3;100
43181;BME280;28798;54.950;26.362;2022-11-12T15:34:45;1004.7;;;10.3;100
43181;BME280;28798;54.950;26.362;2022-11-12T15:44:47;1004.8;;;10.3;100
43181;BME280;28798;54.950;26.362;2022-11-12T15:48:55;1004.8;;;10.3;100
43181;BME280;28798;54.950;26.362;2022-11-12T15:54:33;1004.8;;;10.3;100
43181;BME280;28798;54.950;26.362;2022-11-12T15:59:33;1004.8;;;10.3;100
43181;BME280;28798;54.950;26.362;2022-11-12T16:04:09;1004.8;;;10.3;100
43181;BME280;28798;54.950;26.362;2022-11-12T16:09:45;1004.8;;;10.3;100
43181;BME280;28798;54.950;26.362;2022-11-12T16:14:47;1004.8;;;10.3;100
43181;BME280;28798;54.950;26.362;2022-11-12T16:19:31;1004.8;;;10.3;100
43181;BME280;28798;54.950;26.362;2022-11-12T16:24:19;1004.8;;;10.3;100
43181;BME280;28798;54.950;26.362;2022-11-12T16:29:08;1004.9;;;10.3;100
43181;BME280;28798;54.950;26.362;2022-11-12T16:34:33;1004.9;;;10.3;100
43181;BME280;28798;54.950;26.362;2022-11-12T16:49:47;1004.9;;;10.4;100
43181;BME280;28798;54.950;26.362;2022-11-12T16:54:07;1005;;;10.4;100
43181;BME280;28798;54.950;26.362;2022-11-12T16:59:47;1005;;;10.4;100
43181;BME280;28798;54.950;26.362;2022-11-12T17:04:17;1005.2;;;10.4;100
43181;BME280;28798;54.950;26.362;2022-11-12T17:09:33;1005.2;;;10.4;100
43181;BME280;28798;54.950;26.362;2022-11-12T17:14:33;1005.2;;;10.4;100
43181;BME280;28798;54.950;26.362;2022-11-12T17:19:09;1005.2;;;10.4;100
43181;BME280;28798;54.950;26.362;2022-11-12T17:23:56;1005.2;;;10.4;100
43181;BME280;28798;54.950;26.362;2022-11-12T17:29:45;1005.4;;;10.4;100
43181;BME280;28798;54.950;26.362;2022-11-12T17:34:45;1005.4;;;10.4;100
43181;BME280;28798;54.950;26.362;2022-11-12T17:43:55;1005.3;;;10.4;100
43181;BME280;28798;54.950;26.362;2022-11-12T17:49:09;1005.3;;;10.4;100
43181;BME280;28798;54.950;26.362;2022-11-12T17:54:45;1005.4;;;10.5;100
43181;BME280;28798;54.950;26.362;2022-11-12T17:59:15;1005.4;;;10.5;100
43181;BME280;28798;54.950;26.362;2022-11-12T18:04:33;1005.4;;;10.5;100
43181;BME280;28798;54.950;26.362;2022-11-12T18:19:05;1005.6;;;10.5;100
43181;BME280;28798;54.950;26.362;2022-11-12T18:24:31;1005.6;;;10.5;100
43181;BME280;28798;54.950;26.362;2022-11-12T18:29:33;1005.7;;;10.5;100
43181;BME280;28798;54.950;26.362;2022-11-12T18:33:55;1005.7;;;10.5;100
43181;BME280;28798;54.950;26.362;2022-11-12T18:49:45;1005.7;;;10.6;100
43181;BME280;28798;54.950;26.362;2022-11-12T18:54:19;1005.9;;;10.6;100
43181;BME280;28798;54.950;26.362;2022-11-12T18:59:05;1005.9;;;10.6;100
43181;BME280;28798;54.950;26.362;2022-11-12T19:03:55;1006.1;;;10.6;100
43181;BME280;28798;54.950;26.362;2022-11-12T19:19:33;1006.2;;;10.6;100
43181;BME280;28798;54.950;26.362;2022-11-12T19:24:05;1006.2;;;10.6;100
43181;BME280;28798;54.950;26.362;2022-11-12T19:28:55;1006.1;;;10.6;100
43181;BME280;28798;54.950;26.362;2022-11-12T19:34:17;1006.1;;;10.6;100
43181;BME280;28798;54.950;26.362;2022-11-12T19:49:05;1006.1;;;10.6;100
43181;BME280;28798;54.950;26.362;2022-11-12T19:53:55;1006;;;10.5;100
43181;BME280;28798;54.950;26.362;2022-11-12T19:59:45;1006;;;10.5;100
43181;BME280;28798;54.950;26.362;2022-11-12T20:04:45;1006;;;10.5;100
43181;BME280;28798;54.950;26.362;2022-11-12T20:09:19;1006;;;10.5;100
43181;BME280;28798;54.950;26.362;2022-11-12T20:14:05;1006.2;;;10.5;100
43181;BME280;28798;54.950;26.362;2022-11-12T20:18:55;1006.2;;;10.5;100
43181;BME280;28798;54.950;26.362;2022-11-12T20:24:45;1006.2;;;10.5;100
43181;BME280;28798;54.950;26.362;2022-11-12T20:29:05;1006.3;;;10.5;100
43181;BME280;28798;54.950;26.362;2022-11-12T20:34:33;1006.3;;;10.5;100
43181;BME280;28798;54.950;26.362;2022-11-12T20:44:07;1006.4;;;10.6;100
43181;BME280;28798;54.950;26.362;2022-11-12T20:49:05;1006.4;;;10.6;100
43181;BME280;28798;54.950;26.362;2022-11-12T20:54:13;1006.4;;;10.6;100
43181;BME280;28798;54.950;26.362;2022-11-12T20:59:33;1006.4;;;10.6;100
43181;BME280;28798;54.950;26.362;2022-11-12T21:19:47;1006.5;;;10.3;100
43181;BME280;28798;54.950;26.362;2022-11-12T21:24:19;1006.5;;;10.3;100
43181;BME280;28798;54.950;26.362;2022-11-12T21:28:55;1006.5;;;10.3;100
43181;BME280;28798;54.950;26.362;2022-11-12T21:34:05;1006.5;;;10.3;100
43181;BME280;28798;54.950;26.362;2022-11-12T21:49:47;1006.5;;;10.2;100
43181;BME280;28798;54.950;26.362;2022-11-12T21:54:47;1006.5;;;10.3;100
43181;BME280;28798;54.950;26.362;2022-11-12T21:59:01;1006.5;;;10.3;100
43181;BME280;28798;54.950;26.362;2022-11-12T22:04:29;1006.5;;;10.3;100
43181;BME280;28798;54.950;26.362;2022-11-12T22:09:25;1006.5;;;10.3;100
43181;BME280;28798;54.950;26.362;2022-11-12T22:13:55;1006.6;;;10.2;100
43181;BME280;28798;54.950;26.362;2022-11-12T22:19:43;1006.6;;;10.2;100
43181;BME280;28798;54.950;26.362;2022-11-12T22:24:15;1006.6;;;10.2;100
43181;BME280;28798;54.950;26.362;2022-11-12T22:29:13;1006.5;;;10.3;100
43181;BME280;28798;54.950;26.362;2022-11-12T22:33:56;1006.5;;;10.3;100
43181;BME280;28798;54.950;26.362;2022-11-12T22:44:15;1006.6;;;10.1;100
43181;BME280;28798;54.950;26.362;2022-11-12T22:49:13;1006.6;;;10.1;100
43181;BME280;28798;54.950;26.362;2022-11-12T22:54:13;1006.6;;;10.1;100
43181;BME280;28798;54.950;26.362;2022-11-12T22:59:43;1006.6;;;10.1;100
43181;BME280;28798;54.950;26.362;2022-11-12T23:04:43;1006.7;;;9.9;100
43181;BME280;28798;54.950;26.362;2022-11-12T23:09:43;1006.7;;;9.9;100
43181;BME280;28798;54.950;26.362;2022-11-12T23:14:11;1006.7;;;9.8;100
43181;BME280;28798;54.950;26.362;2022-11-12T23:19:27;1006.6;;;9.7;100
43181;BME280;28798;54.950;26.362;2022-11-12T23:24:25;1006.6;;;9.7;100
43181;BME280;28798;54.950;26.362;2022-11-12T23:29:15;1006.7;;;9.6;100
43181;BME280;28798;54.950;26.362;2022-11-12T23:34:41;1006.7;;;9.6;100
43181;BME280;28798;54.950;26.362;2022-11-12T23:44:27;1007;;;9.4;100
43181;BME280;28798;54.950;26.362;2022-11-12T23:48:56;1007;;;9.4;100
43181;BME280;28798;54.950;26.362;2022-11-12T23:54:43;1007;;;9.4;100
43181;BME280;28798;54.950;26.362;2022-11-12T23:59:15;1007;;;9.4;100
